Home > Products > Valid Products > TAF

000
FTUS41 KLWX 231700
TAFDCA
TAF
KDCA 231735Z 2318/2418 21006KT P6SM SCT040
     FM231900 21008KT P6SM BKN040
     FM232000 22008KT P6SM VCTS BKN040CB
     FM240200 26004KT P6SM VCTS BKN040CB BKN080
     FM240600 29004KT P6SM BKN040 BKN080
     FM241200 35007KT P6SM BKN040 OVC080=



000
FTUS41 KLWX 231700
TAFMTN
TAF
KMTN 231735Z 2318/2418 19008KT P6SM SCT040
     FM232000 20009KT P6SM VCTS BKN040CB
     FM240200 22004KT P6SM VCTS BKN040CB BKN080
     FM240600 VRB03KT P6SM BKN040 BKN080
     FM240900 34007KT P6SM BKN040 OVC080=



000
FTUS41 KLWX 231700
TAFCHO
TAF
KCHO 231735Z 2318/2418 22006KT P6SM SCT040
     FM231900 22007KT P6SM BKN040
     FM232000 22007KT P6SM VCTS BKN040CB
     FM240000 VRB03KT P6SM VCTS BKN040CB BKN080
     FM240600 00000KT P6SM BKN040 BKN080
     FM241500 36006KT 6SM -SHRA OVC040=



000
FTUS41 KLWX 231700
TAFBWI
TAF
KBWI 231735Z 2318/2424 20006KT P6SM SCT040
     FM232000 21008KT P6SM VCTS BKN040CB
     FM240200 25004KT P6SM VCTS BKN040CB BKN080
     FM240600 30004KT P6SM BKN040 BKN080
     FM241200 35008KT P6SM BKN040 OVC080=



000
FTUS41 KLWX 231700
TAFIAD
TAF
KIAD 231735Z 2318/2424 21006KT P6SM SCT040
     FM231900 22008KT P6SM BKN040
     FM232000 22008KT P6SM VCTS BKN040CB
     FM232300 24006KT 6SM -TSRA BKN040CB
     FM240200 VRB03KT P6SM VCTS BKN040CB BKN080
     FM240600 31004KT P6SM BKN040 BKN080
     FM241200 35008KT P6SM BKN040 OVC080=



000
FTUS41 KLWX 231700
TAFMRB
TAF
KMRB 231735Z 2318/2418 23006KT P6SM SCT040
     FM231900 24007KT P6SM BKN040
     FM232000 24007KT P6SM VCTS BKN040CB
     FM232300 28006KT 6SM -TSRA BKN040CB
     FM240200 30004KT P6SM VCTS BKN040CB BKN080
     FM240600 33006KT 6SM -SHRA VCTS BKN040CB OVC080
     FM241000 35006KT P6SM BKN040 OVC080=



000
FTUS41 KLWX 231500 AAA
TAFIAD
TAF AMD
KIAD 231501Z 2315/2418 21007KT P6SM FEW040 SCT100
     FM232000 22008KT P6SM VCTS SCT040CB BKN080
     FM240000 24005KT P6SM BKN060
     FM240200 31004KT P6SM BKN070
     FM241200 34008KT P6SM OVC070=



000
FTUS41 KLWX 231500 AAA
TAFBWI
TAF AMD
KBWI 231500Z 2315/2418 20008KT P6SM FEW040 SCT100
     FM232000 20009KT P6SM VCTS SCT040CB BKN080
     FM240000 20006KT P6SM OVC060
     FM240200 28004KT P6SM BKN070
     FM241100 34007KT P6SM OVC090=



000
FTUS41 KLWX 231500 AAA
TAFDCA
TAF AMD
KDCA 231500Z 2315/2412 21008KT P6SM FEW040 SCT100
     FM232000 22010KT P6SM VCTS SCT040CB BKN080
     FM240000 22006KT P6SM BKN060
     FM240200 30005KT P6SM BKN070=



000
FTUS41 KLWX 231100
TAFBWI
TAF
KBWI 231133Z 2312/2418 19005KT P6SM FEW050 SCT070
     FM231500 20008KT P6SM SCT040 BKN100
     FM232000 20009KT P6SM VCTS SCT040CB BKN080
     FM240000 20006KT P6SM OVC060
     FM240200 28004KT P6SM BKN070
     FM241100 34007KT P6SM OVC090=



000
FTUS41 KLWX 231100
TAFDCA
TAF
KDCA 231133Z 2312/2412 19008KT P6SM FEW070 SCT250
     FM231500 21008KT P6SM SCT040 BKN090
     FM232000 22009KT P6SM VCTS SCT040CB BKN080
     FM240000 22006KT P6SM BKN060
     FM240200 30005KT P6SM BKN070=



000
FTUS41 KLWX 231100
TAFCHO
TAF
KCHO 231133Z 2312/2412 22004KT P6SM BKN090
     FM231500 22007KT P6SM BKN100
     FM232000 23008KT P6SM VCTS SCT040CB BKN080
     FM240000 VRB03KT P6SM BKN060=



000
FTUS41 KLWX 231100
TAFMTN
TAF
KMTN 231133Z 2312/2412 21006KT P6SM FEW250
     FM231500 18010KT P6SM BKN120
     FM232000 19010KT P6SM VCTS SCT040CB BKN090
     FM240000 19008KT P6SM OVC060
     FM240200 27004KT P6SM BKN070
     FM240400 00000KT P6SM BKN080
     FM240800 32006KT P6SM BKN080=



000
FTUS41 KLWX 231100
TAFMRB
TAF
KMRB 231133Z 2312/2412 00000KT 4SM BR SKC
     FM231500 VRB03KT P6SM SCT090
     FM231700 23007KT P6SM BKN100
     FM232000 24008KT P6SM VCTS SCT040CB BKN080
     FM232300 29008KT P6SM -TSRA SCT040CB BKN070
     FM240100 31008KT P6SM -SHRA VCTS BKN060CB
     FM240400 32005KT P6SM BKN060=



000
FTUS41 KLWX 231100
TAFIAD
TAF
KIAD 231133Z 2312/2418 19007KT P6SM SCT080 SCT250
     FM231400 21007KT P6SM BKN100
     FM232000 22008KT P6SM VCTS SCT040CB BKN080
     FM240000 24005KT P6SM BKN060
     FM240200 31004KT P6SM BKN070
     FM241200 34008KT P6SM OVC070=



000
FTUS41 KLWX 230900 AAA
TAFBWI
TAF AMD
KBWI 230903Z 2309/2412 18004KT P6SM FEW050 SCT090
     FM231500 20007KT P6SM FEW040 SCT090
     FM232000 20009KT P6SM SCT040 BKN080
     FM240100 23005KT P6SM -SHRA VCTS SCT040 BKN060CB
     FM240400 31004KT P6SM BKN080=



000
FTUS41 KLWX 230900 AAA
TAFIAD
TAF AMD
KIAD 230903Z 2309/2412 19006KT P6SM FEW090
     FM231500 21007KT P6SM SCT050 BKN100
     FM240200 31004KT P6SM BKN070=



000
FTUS41 KLWX 230900 AAA
TAFDCA
TAF AMD
KDCA 230903Z 2309/2406 20006KT P6SM FEW080 BKN250
     FM231500 19009KT P6SM FEW040 SCT090
     FM232000 22009KT P6SM SCT040 BKN080
     FM240100 25005KT P6SM -SHRA VCTS SCT040 BKN060CB
     FM240400 33005KT P6SM BKN080=



000
FTUS41 KLWX 230500
TAFCHO
TAF
KCHO 230537Z 2306/2406 19004KT P6SM SKC
     FM231500 23007KT P6SM SCT050 SCT110
     FM231900 22008KT P6SM SCT040 BKN080
     FM240000 VRB03KT P6SM BKN060=



000
FTUS41 KLWX 230500
TAFBWI
TAF
KBWI 230537Z 2306/2412 17004KT P6SM SKC
     FM231500 20007KT P6SM FEW040 SCT090
     FM232000 20009KT P6SM SCT040 BKN080
     FM240100 23005KT P6SM -SHRA VCTS SCT040 BKN060CB
     FM240400 31004KT P6SM BKN080=



000
FTUS41 KLWX 230500
TAFMRB
TAF
KMRB 230537Z 2306/2406 16004KT P6SM SKC
     FM231500 23007KT P6SM SCT050 BKN100
     FM232200 29008KT P6SM -SHRA VCTS SCT040CB BKN070
     FM240200 32005KT P6SM BKN060=



000
FTUS41 KLWX 230500
TAFDCA
TAF
KDCA 230537Z 2306/2406 17008KT P6SM FEW250
     FM231500 19009KT P6SM FEW040 SCT090
     FM232000 22009KT P6SM SCT040 BKN080
     FM240100 25005KT P6SM -SHRA VCTS SCT040 BKN060CB
     FM240400 33005KT P6SM BKN080=



000
FTUS41 KLWX 230500
TAFIAD
TAF
KIAD 230537Z 2306/2412 18006KT P6SM SKC
     FM231500 21007KT P6SM SCT050 BKN100
     FM240200 31004KT P6SM BKN070=



000
FTUS41 KLWX 230500
TAFMTN
TAF
KMTN 230537Z 2306/2406 NIL=



000
FTUS41 KLWX 222300
TAFDCA
TAF
KDCA 222320Z 2300/2324 17008KT P6SM SCT050
     FM230200 17007KT P6SM SCT250
     FM231900 22008KT P6SM SCT050
     FM232000 23007KT P6SM BKN050=



000
FTUS41 KLWX 222300
TAFBWI
TAF
KBWI 222320Z 2300/2406 17008KT P6SM SCT050
     FM230200 18007KT P6SM SCT250
     FM231900 21008KT P6SM SCT050
     FM232000 22007KT P6SM BKN050
     FM240200 28005KT P6SM BKN050=



000
FTUS41 KLWX 222300
TAFMTN
TAF
KMTN 222320Z 2300/2324 18010KT P6SM SCT050
     FM230200 18009KT P6SM SCT250
     FM230800 20005KT P6SM SCT250
     FM231600 20009KT P6SM SCT250
     FM232000 21009KT P6SM SCT040 BKN050
      AMD NOT SKED 2302/2312=



000
FTUS41 KLWX 222300
TAFMRB
TAF
KMRB 222320Z 2300/2324 17006KT P6SM SCT050
     FM230200 18007KT P6SM SCT250
     FM231000 19004KT 3SM BR SCT250
     FM231300 22004KT P6SM SCT250
     FM231500 22006KT P6SM BKN090
     FM232300 30007KT P6SM BKN050=



000
FTUS41 KLWX 222300
TAFIAD
TAF
KIAD 222320Z 2300/2406 18007KT P6SM SCT050
     FM230200 16007KT P6SM SCT250
     FM231700 22007KT P6SM SCT050
     FM231900 23007KT P6SM BKN050
     FM240200 31006KT P6SM BKN050=



000
FTUS41 KLWX 222300
TAFCHO
TAF
KCHO 222320Z 2300/2324 18004KT P6SM SCT060
     FM230600 VRB03KT 5SM BR SCT250
     FM230800 VRB03KT 3SM BR SCT090
     FM231300 23004KT P6SM SCT090
     FM232000 23006KT P6SM SCT040 BKN050=



000
FTUS41 KLWX 222000 AAA
TAFBWI
TAF AMD
KBWI 222051Z 2221/2324 17007KT P6SM SCT050
     FM230500 20005KT P6SM SCT250
     FM231900 21008KT P6SM FEW040 SCT050
     FM232100 23007KT P6SM SCT040 BKN050=



000
FTUS41 KLWX 222000 AAA
TAFDCA
TAF AMD
KDCA 222051Z 2221/2318 17008KT P6SM SCT050
     FM222200 17008KT P6SM BKN030
     FM230900 19004KT P6SM SCT250
     FM231700 21008KT P6SM SCT250=



000
FTUS41 KLWX 222000 AAA
TAFIAD
TAF AMD
KIAD 222051Z 2221/2324 18009KT P6SM BKN050
     FM222300 17008KT P6SM SCT050
     FM230100 17006KT P6SM SCT250
     FM231000 19005KT 5SM BR SCT250
     FM231300 21005KT P6SM SCT250
     FM231700 22007KT P6SM SCT050
     FM231800 23008KT P6SM SCT040 BKN050=



000
FTUS41 KLWX 221900 AAA
TAFCHO
TAF AMD
KCHO 221907Z 2219/2318 15005KT P6SM BKN030
     FM222000 17005KT P6SM BKN040 OVC070
     FM230000 VRB03KT P6SM SCT250
     FM230600 00000KT 5SM BR SCT030
     FM231300 24005KT P6SM SCT050=



000
FTUS41 KLWX 221700
TAFMTN
TAF
KMTN 221737Z 2218/2318 14007KT P6SM BKN040
     FM222000 17009KT P6SM SCT090
     FM230300 19005KT P6SM SCT250
     FM230900 VRB03KT 5SM BR SCT030
     FM231300 20009KT P6SM SCT250=



000
FTUS41 KLWX 221700
TAFCHO
TAF
KCHO 221737Z 2218/2318 15005KT P6SM BKN030
     FM221900 17005KT P6SM BKN040 OVC070
     FM230000 VRB03KT P6SM SCT250
     FM230600 00000KT 5SM BR SCT030
     FM231300 24005KT P6SM SCT050=



000
FTUS41 KLWX 221700
TAFDCA
TAF
KDCA 221737Z 2218/2318 17008KT P6SM BKN050
     FM230300 19006KT P6SM SCT250
     FM230900 VRB03KT 5SM BR SCT030
     FM231300 20008KT P6SM SCT040=



000
FTUS41 KLWX 221700
TAFMRB
TAF
KMRB 221737Z 2218/2318 15006KT P6SM BKN040
     FM230100 VRB04KT P6SM FEW250
     FM230900 VRB03KT 5SM BR SCT030
     FM231500 22006KT P6SM BKN090=



000
FTUS41 KLWX 221700
TAFIAD
TAF
KIAD 221737Z 2218/2324 17006KT P6SM SCT025 BKN050
     FM222000 19010KT P6SM BKN050
     FM230300 18005KT P6SM SCT250
     FM230900 VRB03KT 5SM BR SCT030
     FM231300 22007KT P6SM SCT050=



000
FTUS41 KLWX 221700
TAFBWI
TAF
KBWI 221737Z 2218/2324 16006KT P6SM BKN050
     FM230000 19005KT P6SM SCT250
     FM230900 VRB03KT P6SM SCT030
     FM231300 21008KT P6SM FEW040 SCT050
     FM232100 23007KT P6SM SCT040 BKN050=



000
FTUS41 KLWX 221500 AAC
TAFMRB
TAF AMD
KMRB 221509Z 2215/2312 16005KT P6SM BKN020 OVC035
     FM221600 16007KT P6SM BKN035
     FM221800 16006KT P6SM SCT050
     FM230800 00000KT P6SM BKN050
     FM230900 00000KT P6SM BKN030=



000
FTUS41 KLWX 221500 AAA
TAFCHO
TAF AMD
KCHO 221507Z 2215/2312 16005KT P6SM SCT015 OVC035
     FM221600 16005KT P6SM BKN050
     FM230900 00000KT P6SM BKN030=



000
FTUS41 KLWX 221500 AAB
TAFBWI
TAF AMD
KBWI 221506Z 2215/2318 21006KT P6SM SCT015 BKN040
     FM221600 19005KT P6SM BKN050
     FM222200 16007KT P6SM SCT050
     FM230300 19004KT P6SM BKN050
     FM230900 00000KT P6SM BKN030
     FM231200 21006KT P6SM BKN050=



000
FTUS41 KLWX 221500 AAB
TAFDCA
TAF AMD
KDCA 221506Z 2215/2312 17005KT P6SM SCT030 BKN050
     FM221600 17008KT P6SM BKN050
     FM230900 20005KT P6SM BKN030=



000
FTUS41 KLWX 221500 AAB
TAFIAD
TAF AMD
KIAD 221506Z 2215/2318 25006KT P6SM SCT020
      TEMPO 2215/2216 BKN020
     FM221600 19005KT P6SM BKN050
     FM230900 VRB03KT P6SM BKN030
     FM231200 21006KT P6SM BKN050=



000
FTUS41 KLWX 221400 AAA
TAFDCA
TAF AMD
KDCA 221410Z 2214/2312 17005KT P6SM SCT025 BKN050
      TEMPO 2214/2216 BKN025 OVC050
     FM221600 17008KT P6SM BKN050
     FM230900 20005KT P6SM BKN030=



000
FTUS41 KLWX 221400 AAB
TAFMRB
TAF AMD
KMRB 221409Z 2214/2312 00000KT P6SM SCT020 BKN035
      TEMPO 2214/2215 BKN020
     FM221500 16007KT P6SM BKN050
     FM222200 16006KT P6SM SCT050
     FM230800 00000KT P6SM BKN050
     FM230900 00000KT P6SM BKN030=



000
FTUS41 KLWX 221400 AAB
TAFMTN
TAF AMD
KMTN 221409Z 2214/2312 VRB03KT P6SM SCT015 BKN035
      TEMPO 2214/2216 BKN015
     FM221600 16006KT P6SM BKN050
     FM222200 16008KT P6SM SCT050
     FM230300 16009KT P6SM BKN050
     FM230900 00000KT P6SM BKN030=



000
FTUS41 KLWX 221300 AAA
TAFMRB
TAF AMD
KMRB 221328Z 2213/2312 00000KT P6SM SCT008
      TEMPO 2213/2215 BKN008
     FM221500 16007KT P6SM BKN050
     FM222200 16006KT P6SM SCT050
     FM230800 00000KT P6SM BKN050
     FM230900 00000KT P6SM BKN030=



000
FTUS41 KLWX 221300 AAA
TAFMTN
TAF AMD
KMTN 221327Z 2213/2312 VRB03KT P6SM BKN035
     FM221600 16006KT P6SM BKN050
     FM222200 16008KT P6SM SCT050
     FM230300 16009KT P6SM BKN050
     FM230900 00000KT P6SM BKN030=



000
FTUS41 KLWX 221300 AAA
TAFBWI
TAF AMD
KBWI 221327Z 2213/2318 VRB03KT P6SM FEW009 BKN025 OVC040
     FM221400 VRB03KT P6SM SCT025 BKN040
     FM221600 15004KT P6SM BKN050
     FM222200 16007KT P6SM SCT050
     FM230300 19004KT P6SM BKN050
     FM230900 00000KT P6SM BKN030
     FM231200 21006KT P6SM BKN050=



000
FTUS41 KLWX 221300 AAA
TAFIAD
TAF AMD
KIAD 221325Z 2213/2318 19006KT P6SM OVC007
     FM221400 19006KT P6SM SCT010 OVC015
     FM221600 19005KT P6SM BKN050
     FM230900 VRB03KT P6SM BKN030
     FM231200 21006KT P6SM BKN050=



000
FTUS41 KLWX 221100 CCA
TAFDCA
TAF COR
KDCA 221139Z 2212/2312 15005KT P6SM SCT020 BKN250
     FM221400 VRB03KT P6SM BKN050
     FM230900 20005KT P6SM BKN030=



000
FTUS41 KLWX 221100
TAFMRB
TAF
KMRB 221120Z 2212/2312 00000KT 3SM BR SCT008 BKN015
     FM221500 16007KT P6SM BKN050
     FM222200 16006KT P6SM SCT050
     FM230800 00000KT P6SM BKN050
     FM230900 00000KT P6SM BKN030=



000
FTUS41 KLWX 221100
TAFIAD
TAF
KIAD 221120Z 2212/2318 17004KT P6SM OVC007
     FM221300 17004KT P6SM OVC015
     FM221600 19005KT P6SM BKN050
     FM230900 VRB03KT P6SM BKN030
     FM231200 21006KT P6SM BKN050=



000
FTUS41 KLWX 221100
TAFMTN
TAF
KMTN 221120Z 2212/2312 VRB03KT P6SM OVC040
     FM221300 VRB03KT P6SM OVC015
     FM221600 16006KT P6SM BKN050
     FM222200 16008KT P6SM SCT050
     FM230300 16009KT P6SM BKN050
     FM230900 00000KT P6SM BKN030=



000
FTUS41 KLWX 221100
TAFDCA
TAF
KDCA 221120Z 2212/2312 15005KT P6SM BKN020 BKN150 BKN250
     FM221400 VRB03KT P6SM BKN050
     FM230900 20005KT P6SM BKN030=



000
FTUS41 KLWX 221100
TAFCHO
TAF
KCHO 221120Z 2212/2312 VRB04KT 6SM BR OVC010
     FM221300 00000KT P6SM OVC015
     FM221600 VRB03KT P6SM BKN050
     FM230900 00000KT P6SM BKN030=



000
FTUS41 KLWX 221100
TAFBWI
TAF
KBWI 221120Z 2212/2318 00000KT P6SM FEW009 SCT025 OVC040
     FM221600 15004KT P6SM BKN050
     FM222200 16007KT P6SM SCT050
     FM230300 19004KT P6SM BKN050
     FM230900 00000KT P6SM BKN030
     FM231200 21006KT P6SM BKN050=



000
FTUS41 KLWX 221000 AAC
TAFIAD
TAF AMD
KIAD 221032Z 2211/2312 17004KT P6SM OVC009
     FM221300 17004KT P6SM OVC015
     FM221600 19005KT P6SM BKN050
     FM230900 VRB03KT P6SM BKN030=



000
FTUS41 KLWX 221000 AAC
TAFMRB
TAF AMD
KMRB 221029Z 2210/2306 00000KT 1/2SM FG VV009
     FM221200 VRB03KT 2SM BR SCT009
     FM221300 16004KT P6SM OVC015
     FM221600 16007KT P6SM BKN050
     FM222200 16006KT P6SM SCT050
     FM230300 00000KT P6SM SCT050=



000
FTUS41 KLWX 220800 AAA
TAFCHO
TAF AMD
KCHO 220841Z 2209/2306 19004KT P6SM BKN010 OVC016
     FM221000 00000KT 5SM BR OVC008
     FM221300 00000KT P6SM OVC015
     FM221600 VRB03KT P6SM BKN050=



000
FTUS41 KLWX 220800 AAB
TAFDCA
TAF AMD
KDCA 220841Z 2209/2306 19004KT P6SM FEW012 SCT150 BKN250
     FM221000 00000KT P6SM OVC020
     FM221400 VRB03KT P6SM BKN050
     FM222200 17008KT P6SM SCT050
     FM230300 19008KT P6SM BKN050=



000
FTUS41 KLWX 220800 AAA
TAFBWI
TAF AMD
KBWI 220841Z 2209/2312 00000KT P6SM BKN009
     FM221000 00000KT P6SM OVC015
     FM221400 VRB03KT P6SM OVC050
     FM222200 16007KT P6SM SCT050
     FM230600 00000KT P6SM BKN200=



000
FTUS41 KLWX 220800 AAB
TAFMRB
TAF AMD
KMRB 220841Z 2209/2306 00000KT 2SM BR BKN015
     FM221300 16004KT P6SM OVC015
     FM221600 16007KT P6SM BKN050
     FM222200 16006KT P6SM SCT050
     FM230300 00000KT P6SM SCT050=



000
FTUS41 KLWX 220800 AAB
TAFIAD
TAF AMD
KIAD 220841Z 2209/2312 18004KT P6SM FEW014 SCT026 BKN035
     FM221100 17004KT P6SM OVC015
     FM221400 19005KT P6SM BKN050=



000
FTUS41 KLWX 220700 AAA
TAFMRB
TAF AMD
KMRB 220736Z 2208/2306 00000KT 3SM BR BKN020 BKN050
     FM221200 00000KT 5SM BR BKN025
     FM221300 16004KT P6SM BKN035
     FM221600 16007KT P6SM BKN050
     FM222200 16006KT P6SM SCT050=



000
FTUS41 KLWX 220600 AAA
TAFIAD
TAF AMD
KIAD 220640Z 2207/2312 17004KT P6SM SCT013 BKN027
     FM220800 VRB03KT P6SM BKN028
     FM221600 19005KT P6SM BKN050
     FM230300 17006KT P6SM SCT050
     FM230900 VRB03KT P6SM BKN080=



000
FTUS41 KLWX 220600 AAA
TAFDCA
TAF AMD
KDCA 220640Z 2207/2306 21004KT P6SM BKN014 BKN250
     FM220800 00000KT P6SM BKN030
     FM221300 00000KT P6SM BKN015
     FM221600 VRB03KT P6SM BKN050
     FM222200 17008KT P6SM SCT050
     FM230300 19008KT P6SM BKN050=



000
FTUS41 KLWX 220500
TAFMTN
TAF
KMTN 220535Z 2206/2306 NIL=



000
FTUS41 KLWX 220500
TAFIAD
TAF
KIAD 220535Z 2206/2312 17004KT P6SM FEW025 SCT250
     FM220800 VRB03KT P6SM BKN028
     FM221600 19005KT P6SM BKN050
     FM230300 17006KT P6SM SCT050
     FM230900 VRB03KT P6SM BKN080=



000
FTUS41 KLWX 220500
TAFBWI
TAF
KBWI 220535Z 2206/2312 00000KT P6SM FEW020 SCT250
     FM220900 00000KT P6SM BKN025
     FM221400 VRB03KT P6SM BKN050
     FM222200 16007KT P6SM SCT050
     FM230900 00000KT P6SM BKN070=



000
FTUS41 KLWX 220500
TAFDCA
TAF
KDCA 220535Z 2206/2306 18005KT P6SM SCT250
     FM220800 00000KT P6SM BKN030
     FM221300 00000KT P6SM BKN015
     FM221600 VRB03KT P6SM BKN050
     FM222200 17008KT P6SM SCT050
     FM230300 19008KT P6SM BKN050=



000
FTUS41 KLWX 220500
TAFCHO
TAF
KCHO 220535Z 2206/2306 18006KT P6SM SCT012 BKN018 OVC040
     FM221000 00000KT 5SM BR BKN008
     FM221300 00000KT P6SM BKN015
     FM221600 VRB03KT P6SM BKN050=



000
FTUS41 KLWX 220500
TAFMRB
TAF
KMRB 220535Z 2206/2306 00000KT P6SM FEW020 BKN050
     FM221000 00000KT 5SM BR BKN025
     FM221300 16004KT P6SM BKN035
     FM221600 16007KT P6SM BKN050
     FM222200 16006KT P6SM SCT050=



000
FTUS41 KLWX 212300
TAFDCA
TAF
KDCA 212328Z 2200/2224 15007KT P6SM BKN050
     FM220700 VRB03KT P6SM BKN040
     FM220900 VRB03KT P6SM BKN015
     FM221000 VRB03KT 6SM BR BKN008
     FM221300 16004KT P6SM BKN015
     FM221600 14007KT P6SM BKN050
     FM222200 16007KT P6SM SCT050=



000
FTUS41 KLWX 212300
TAFIAD
TAF
KIAD 212328Z 2200/2306 16007KT P6SM BKN040
     FM220600 17005KT P6SM BKN030
     FM220800 16004KT 3SM BR BKN008
     FM221300 17004KT P6SM BKN015
     FM221600 16007KT P6SM BKN050
     FM230300 17004KT P6SM SCT050=



000
FTUS41 KLWX 212300
TAFBWI
TAF
KBWI 212328Z 2200/2306 15007KT P6SM BKN060
     FM220600 17006KT P6SM BKN030
     FM220700 17005KT P6SM BKN025
     FM220900 VRB03KT 5SM BR BKN020
     FM221000 VRB03KT 3SM BR BKN015
     FM221400 15005KT P6SM BKN050
     FM221800 15009KT P6SM BKN050
     FM222200 16007KT P6SM SCT050=



000
FTUS41 KLWX 212300
TAFCHO
TAF
KCHO 212328Z 2200/2224 00000KT P6SM OVC040
     FM220100 00000KT P6SM BKN030
     FM220300 13005KT P6SM BKN020
     FM220500 VRB03KT 5SM BR BKN008
     FM221000 00000KT 2SM BR BKN008
     FM221300 00000KT P6SM BKN015
     FM221600 13005KT P6SM BKN050=



000
FTUS41 KLWX 212300
TAFMTN
TAF
KMTN 212328Z 2200/2224 16007KT P6SM BKN060
     FM220600 17005KT P6SM BKN025
     FM221300 16004KT P6SM BKN015
     FM221600 15007KT P6SM BKN050
     FM222200 17008KT P6SM SCT050
      AMD NOT SKED 2202/2212=



000
FTUS41 KLWX 212300
TAFMRB
TAF
KMRB 212328Z 2200/2224 16005KT P6SM BKN050
     FM220900 VRB03KT 3SM BR BKN025
     FM221300 VRB03KT P6SM BKN015
     FM221600 14007KT P6SM BKN050
     FM222200 16007KT P6SM SCT050=



000
FTUS41 KLWX 212100 AAA
TAFDCA
TAF AMD
KDCA 212104Z 2121/2218 16008KT P6SM BKN050
     FM220500 16004KT P6SM BKN090
     FM220900 VRB03KT 5SM BR BKN015
     FM221000 VRB03KT 5SM BR BKN008
     FM221300 16004KT P6SM BKN015
     FM221600 14007KT P6SM BKN050=



000
FTUS41 KLWX 212100 AAA
TAFBWI
TAF AMD
KBWI 212104Z 2121/2224 16008KT P6SM BKN050
     FM220800 17004KT P6SM BKN090
     FM221000 VRB03KT 5SM BR BKN015
     FM221400 15005KT P6SM BKN050
     FM221800 15009KT P6SM BKN050
     FM222200 16007KT P6SM SCT050=



000
FTUS41 KLWX 212100 AAA
TAFIAD
TAF AMD
KIAD 212104Z 2121/2224 16008KT P6SM BKN050
     FM220700 16004KT P6SM BKN090
     FM220900 VRB03KT 3SM BR BKN008
     FM221300 17004KT P6SM BKN015
     FM221600 16007KT P6SM BKN050=



000
FTUS41 KLWX 211700
TAFBWI
TAF
KBWI 211728Z 2118/2224 14008KT P6SM SCT025 BKN050
     FM220800 17004KT P6SM BKN090
     FM221000 VRB03KT 5SM BR BKN015
     FM221400 15005KT P6SM BKN050
     FM221800 15009KT P6SM BKN050=



000
FTUS41 KLWX 211700
TAFDCA
TAF
KDCA 211728Z 2118/2218 16007KT P6SM SCT030 BKN050
     FM220500 16004KT P6SM BKN090
     FM221000 VRB03KT 5SM BR BKN008
     FM221300 16004KT P6SM BKN015
     FM221600 14007KT P6SM BKN050=



000
FTUS41 KLWX 211700
TAFCHO
TAF
KCHO 211728Z 2118/2218 14006KT P6SM SCT025 BKN050
     FM220400 16004KT P6SM BKN025
     FM220600 00000KT 5SM BR BKN015
     FM220800 00000KT 5SM BR BKN008
     FM221300 00000KT P6SM BKN015
     FM221600 13005KT P6SM BKN050=



000
FTUS41 KLWX 211700
TAFIAD
TAF
KIAD 211728Z 2118/2224 14007KT P6SM SCT025 BKN050
     FM220700 16004KT P6SM BKN090
     FM220900 VRB03KT 3SM BR BKN008
     FM221300 17004KT P6SM BKN015
     FM221600 16007KT P6SM BKN050=



000
FTUS41 KLWX 211700
TAFMRB
TAF
KMRB 211728Z 2118/2218 16008KT P6SM SCT025 BKN050
     FM220000 15004KT P6SM BKN050
     FM220600 16005KT 5SM BR BKN090
     FM220900 VRB03KT 3SM BR BKN050
     FM221300 VRB03KT P6SM BKN015
     FM221600 14007KT P6SM BKN050=



000
FTUS41 KLWX 211700
TAFMTN
TAF
KMTN 211728Z 2118/2218 14007KT P6SM BKN050
     FM220800 VRB03KT P6SM BKN090
     FM221000 VRB03KT P6SM BKN025
     FM221300 16004KT P6SM BKN015
     FM221600 15007KT P6SM BKN050=



000
FTUS41 KLWX 211500 AAA
TAFBWI
TAF AMD
KBWI 211503Z 2115/2218 12006KT P6SM SCT030 OVC050
     FM220700 VRB03KT P6SM BKN090
     FM221200 16005KT P6SM SCT025
     FM221500 16006KT P6SM SCT050=



000
FTUS41 KLWX 211500 AAA
TAFDCA
TAF AMD
KDCA 211503Z 2115/2212 12003KT P6SM SCT025 OVC050
     FM211800 14007KT P6SM SCT025 OVC050
     FM220700 VRB03KT P6SM BKN090=



000
FTUS41 KLWX 211500 AAA
TAFIAD
TAF AMD
KIAD 211503Z 2115/2218 12004KT P6SM BKN020 OVC050
     FM211800 17007KT P6SM SCT025 BKN050
     FM220500 VRB03KT P6SM BKN090
     FM221200 17005KT P6SM SCT025
     FM221500 17006KT P6SM SCT050=



000
FTUS41 KLWX 211400 AAA
TAFMRB
TAF AMD
KMRB 211428Z 2114/2212 13004KT P6SM BKN015 OVC050
     FM211700 16008KT P6SM FEW025 BKN050
     FM220100 15004KT P6SM BKN250
     FM220800 00000KT P6SM BKN090=



000
FTUS41 KLWX 211100
TAFDCA
TAF
KDCA 211140Z 2112/2212 09003KT P6SM SCT025 OVC050
     FM211600 14007KT P6SM SCT025 OVC050
     FM220700 VRB03KT P6SM BKN090=



000
FTUS41 KLWX 211100
TAFBWI
TAF
KBWI 211140Z 2112/2218 11003KT P6SM SCT015 BKN050
     FM211500 14007KT P6SM SCT025 OVC050
     FM220700 VRB03KT P6SM BKN090
     FM221200 16005KT P6SM SCT025
     FM221500 16006KT P6SM SCT050=



000
FTUS41 KLWX 211100
TAFIAD
TAF
KIAD 211140Z 2112/2218 11004KT P6SM BKN015 OVC050
     FM211500 17007KT P6SM SCT025 BKN050
     FM220500 VRB03KT P6SM BKN090
     FM221200 17005KT P6SM SCT025
     FM221500 17006KT P6SM SCT050=



000
FTUS41 KLWX 211100
TAFMTN
TAF
KMTN 211140Z 2112/2212 12003KT P6SM SCT025 BKN050
     FM211600 13006KT P6SM SCT025 BKN050=



000
FTUS41 KLWX 211100
TAFMRB
TAF
KMRB 211140Z 2112/2212 14004KT 5SM BR SCT015 OVC050
     FM211400 16008KT P6SM FEW025 BKN050
     FM220100 15004KT P6SM BKN250
     FM220800 00000KT P6SM BKN090=



000
FTUS41 KLWX 211100
TAFCHO
TAF
KCHO 211140Z 2112/2212 00000KT P6SM BKN015 BKN050
     FM211600 14006KT P6SM SCT025 BKN050
     FM220100 00000KT P6SM BKN050=



000
FTUS41 KLWX 210900 AAA
TAFBWI
TAF AMD
KBWI 210942Z 2110/2212 11004KT P6SM SCT015 OVC070
     FM220900 00000KT P6SM BKN090=



000
FTUS41 KLWX 210900 AAA
TAFIAD
TAF AMD
KIAD 210942Z 2110/2212 12007KT 6SM -RA BR SCT009 BKN040 OVC060
     FM211500 10005KT P6SM SCT040 OVC090=



000
FTUS41 KLWX 210900 AAA
TAFDCA
TAF AMD
KDCA 210942Z 2110/2206 13005KT P6SM BKN028 BKN050 OVC070
     FM211500 10005KT P6SM SCT040 OVC090=



000
FTUS41 KLWX 210500 RRA
TAFMRB
TAF
KMRB 210541Z 2106/2206 00000KT P6SM OVC110
     FM210900 VRB03KT P6SM BKN045
     FM211000 VRB03KT 5SM BR BKN025
     FM211500 13005KT P6SM SCT025 BKN050=



000
FTUS41 KLWX 210500 RRA
TAFIAD
TAF
KIAD 210541Z 2106/2212 15005KT P6SM FEW040 OVC060
     FM210900 VRB03KT P6SM OVC035
     FM211500 11005KT P6SM SCT025 BKN050
     FM221000 00000KT P6SM BKN090=



000
FTUS41 KLWX 210500 RRA
TAFDCA
TAF
KDCA 210541Z 2106/2206 15004KT P6SM FEW023 OVC070
     FM210900 10004KT P6SM OVC040
     FM211500 11006KT P6SM SCT025 BKN050=



000
FTUS41 KLWX 210500 RRA
TAFCHO
TAF
KCHO 210541Z 2106/2206 00000KT P6SM FEW035 OVC050
     FM210900 00000KT P6SM BKN035
     FM211000 00000KT 5SM BR BKN035
     FM211200 00000KT P6SM BKN008
     FM211500 09004KT P6SM SCT025 BKN050
     FM220000 00000KT P6SM BKN050=



000
FTUS41 KLWX 210500 RRA
TAFBWI
TAF
KBWI 210541Z 2106/2212 14003KT P6SM SCT050 SCT070 SCT250
     FM210700 11004KT P6SM BKN070
     FM210900 10004KT P6SM BKN035
     FM211500 11006KT P6SM SCT025 BKN050
     FM220900 00000KT P6SM BKN090=



000
FTUS41 KLWX 210500 RRA
TAFMTN
TAF
KMTN 210541Z 2106/2206 NIL=



000
FTUS41 KLWX 202300
TAFBWI
TAF
KBWI 202333Z 2100/2206 12006KT P6SM BKN050
     FM210900 10004KT P6SM BKN015
     FM211500 11006KT P6SM SCT025 BKN050=



000
FTUS41 KLWX 202300
TAFMRB
TAF
KMRB 202333Z 2100/2124 14004KT P6SM BKN050
     FM210300 VRB03KT 5SM BR BKN050
     FM210600 13004KT 5SM BR BKN050
     FM210900 VRB03KT 3SM BR BKN015
     FM211400 13005KT P6SM SCT025 BKN050=



000
FTUS41 KLWX 202300
TAFIAD
TAF
KIAD 202333Z 2100/2206 13005KT P6SM BKN050
     FM210900 VRB03KT P6SM BKN025
     FM211100 11004KT P6SM BKN008
     FM211400 11005KT P6SM SCT025 BKN050
     FM220000 15005KT P6SM SCT050=



000
FTUS41 KLWX 202300
TAFMTN
TAF
KMTN 202333Z 2100/2124 12007KT P6SM BKN050
     FM210900 09004KT P6SM BKN015
     FM211500 11006KT P6SM SCT025 BKN050
      AMD NOT SKED 2102/2112=



000
FTUS41 KLWX 202300
TAFCHO
TAF
KCHO 202333Z 2100/2124 00000KT P6SM BKN050
     FM210300 00000KT 5SM BR BKN050
     FM210600 00000KT 3SM BR BKN050
     FM211100 00000KT 3SM BR BKN008
     FM211500 09004KT P6SM SCT025 BKN050=



000
FTUS41 KLWX 202300
TAFDCA
TAF
KDCA 202333Z 2100/2124 12006KT P6SM BKN050
     FM210900 10004KT P6SM BKN025
     FM211200 10005KT P6SM BKN020
     FM211500 11006KT P6SM SCT025 BKN050=



000
FTUS41 KLWX 202000 AAA
TAFIAD
TAF AMD
KIAD 202059Z 2021/2124 VRB04KT P6SM BKN050
     FM202300 VRB04KT P6SM BKN050
     FM210900 VRB03KT 5SM BR SCT015 OVC025
     FM211200 12004KT 5SM BR BKN008
     FM211500 14005KT P6SM BKN025 BKN050
     FM211800 17006KT P6SM BKN050=



000
FTUS41 KLWX 202000 AAA
TAFDCA
TAF AMD
KDCA 202059Z 2021/2118 07008KT P6SM BKN050
     FM210000 13007KT P6SM SCT050 BKN090
     FM210900 10004KT P6SM SCT015 OVC025
     FM211200 10005KT P6SM SCT008 BKN015
     FM211500 12006KT P6SM BKN025 BKN050=



000
FTUS41 KLWX 202000 AAA
TAFBWI
TAF AMD
KBWI 202059Z 2021/2124 07008KT P6SM SCT025 BKN050
     FM210000 13007KT P6SM SCT050 BKN090
     FM210900 11004KT P6SM BKN015
     FM211500 12006KT P6SM BKN025 BKN050
     FM211800 16006KT P6SM BKN050=



    US Dept of Commerce
    National Oceanic and Atmospheric Administration
    National Weather Service
    1325 East West Highway
    Silver Spring, MD 20910
    Page Author: NWS Internet Services Team
Disclaimer
Information Quality
Credits
Glossary
Privacy Policy
Freedom of Information Act (FOIA)
About Us
Career Opportunities